Time;durP1;ratioP1;P1;durP2;ratioP2;P2;SDS_P1;SDS_P2;PMS_P1;PMS_P2;Temp;Humidity;BMP_temperature;BMP_pressure;BME280_temperature;BME280_humidity;BME280_pressure;Samples;Min_cycle;Max_cycle;Signal;HPM_P1;HPM_P2
2021/10/27 00:00:28;;;;;;;10.88;2.05;;;;;19.20;100849.00;;;;4928769;29;20396;-71
2021/10/27 00:02:57;;;;;;;6.03;1.73;;;;;19.20;100866.00;;;;4928666;29;20051;-72
2021/10/27 00:05:28;;;;;;;7.75;1.45;;;;;19.00;100853.00;;;;4931143;29;20546;-72
2021/10/27 00:07:57;;;;;;;9.73;1.63;;;;;19.00;100863.00;;;;4932030;29;20074;-73
2021/10/27 00:10:26;;;;;;;11.68;1.92;;;;;19.00;100858.00;;;;4931816;29;20044;-73
2021/10/27 00:12:56;;;;;;;6.50;1.35;;;;;18.90;100846.00;;;;4932920;29;20055;-71
2021/10/27 00:15:25;;;;;;;7.82;1.98;;;;;18.70;100853.00;;;;4932385;29;20052;-71
2021/10/27 00:17:55;;;;;;;19.17;3.20;;;;;18.70;100877.00;;;;4932433;29;20059;-71
2021/10/27 00:20:24;;;;;;;11.23;2.30;;;;;18.70;100876.00;;;;4932740;29;20840;-73
2021/10/27 00:22:55;;;;;;;27.50;3.05;;;;;18.60;100864.00;;;;4932099;29;20060;-73
2021/10/27 00:25:24;;;;;;;41.95;3.67;;;;;18.40;100879.00;;;;4932154;29;20521;-72
2021/10/27 00:27:54;;;;;;;28.88;3.45;;;;;18.40;100885.00;;;;4932896;29;20047;-72
2021/10/27 00:30:24;;;;;;;24.33;3.20;;;;;18.40;100878.00;;;;4931622;29;20526;-73
2021/10/27 00:32:54;;;;;;;33.80;4.15;;;;;18.30;100888.00;;;;4932323;29;20063;-73
2021/10/27 00:35:24;;;;;;;19.17;2.65;;;;;18.20;100879.00;;;;4932219;29;20046;-73
2021/10/27 00:37:53;;;;;;;29.75;3.13;;;;;18.20;100897.00;;;;4931842;29;20056;-72
2021/10/27 00:40:22;;;;;;;43.63;4.35;;;;;18.20;100898.00;;;;4925807;29;20523;-72
2021/10/27 00:42:52;;;;;;;35.03;4.03;;;;;18.10;100897.00;;;;4921937;29;20091;-72
2021/10/27 00:45:23;;;;;;;33.83;2.85;;;;;18.10;100890.00;;;;4922556;29;20046;-73
2021/10/27 00:47:53;;;;;;;22.67;2.40;;;;;18.00;100878.00;;;;4921325;29;20474;-72
2021/10/27 00:50:23;;;;;;;20.63;2.20;;;;;18.00;100896.00;;;;4920535;29;20051;-72
2021/10/27 00:52:53;;;;;;;16.17;2.10;;;;;18.00;100879.00;;;;4922130;29;20420;-72
2021/10/27 00:55:24;;;;;;;23.67;3.35;;;;;18.00;100872.00;;;;4922981;29;20074;-72
2021/10/27 00:57:54;;;;;;;12.85;2.28;;;;;17.90;100885.00;;;;4921882;29;20048;-72
2021/10/27 01:00:25;;;;;;;12.85;1.90;;;;;18.00;100897.00;;;;4916133;29;20144;-72
2021/10/27 01:02:54;;;;;;;12.35;1.92;;;;;18.00;100898.00;;;;4919158;29;20384;-72
2021/10/27 01:05:24;;;;;;;11.15;1.83;;;;;18.00;100892.00;;;;4917940;29;20048;-74
2021/10/27 01:07:54;;;;;;;3.35;1.65;;;;;17.90;100899.00;;;;4927287;29;20075;-72
2021/10/27 01:10:23;;;;;;;5.13;1.75;;;;;17.80;100893.00;;;;4930874;29;20127;-72
2021/10/27 01:12:53;;;;;;;6.57;1.60;;;;;17.90;100906.00;;;;4930690;29;20051;-72
2021/10/27 01:15:22;;;;;;;11.27;1.75;;;;;17.90;100900.00;;;;4931366;29;20060;-72
2021/10/27 01:17:52;;;;;;;8.05;1.80;;;;;17.90;100908.00;;;;4930570;29;20515;-72
2021/10/27 01:20:22;;;;;;;16.77;2.08;;;;;17.80;100893.00;;;;4930547;29;20062;-72
2021/10/27 01:22:51;;;;;;;7.10;1.60;;;;;17.80;100900.00;;;;4930991;29;20044;-71
2021/10/27 01:25:21;;;;;;;7.82;1.90;;;;;17.70;100915.00;;;;4931296;29;20107;-71
2021/10/27 01:27:52;;;;;;;6.28;1.63;;;;;17.70;100897.00;;;;4931899;29;20052;-72
2021/10/27 01:30:24;;;;;;;6.20;1.70;;;;;17.60;100913.00;;;;4931682;29;20511;-71
2021/10/27 01:32:54;;;;;;;4.55;1.67;;;;;17.60;100914.00;;;;4931420;29;20043;-72
2021/10/27 01:35:24;;;;;;;8.73;1.58;;;;;17.70;100903.00;;;;4931153;29;20047;-71
2021/10/27 01:37:55;;;;;;;4.40;1.75;;;;;17.70;100907.00;;;;4930567;29;20039;-71
2021/10/27 01:40:25;;;;;;;;;;;;;17.50;100904.00;;;;4931520;29;20039;-71
2021/10/27 01:42:56;;;;;;;5.75;1.70;;;;;17.60;100902.00;;;;4931195;29;19934;-72
2021/10/27 01:45:31;;;;;;;13.32;1.85;;;;;17.60;100904.00;;;;4930623;29;20514;-72
2021/10/27 01:48:01;;;;;;;9.40;1.77;;;;;17.60;100896.00;;;;4930864;29;20517;-71
2021/10/27 01:50:30;;;;;;;16.23;2.05;;;;;17.50;100907.00;;;;4931973;29;20052;-71
2021/10/27 01:53:00;;;;;;;6.00;2.00;;;;;17.40;100899.00;;;;4931249;29;20099;-73
2021/10/27 01:55:30;;;;;;;14.27;2.25;;;;;17.30;100912.00;;;;4930592;29;20511;-73
2021/10/27 01:57:59;;;;;;;8.63;2.42;;;;;17.30;100919.00;;;;4930535;29;20051;-73
2021/10/27 02:00:29;;;;;;;8.32;2.42;;;;;17.20;100896.00;;;;4930408;29;20059;-73
2021/10/27 02:02:58;;;;;;;11.23;2.38;;;;;17.10;100921.00;;;;4930215;29;20669;-73
2021/10/27 02:05:27;;;;;;;11.82;2.70;;;;;17.10;100910.00;;;;4930973;29;20123;-73
2021/10/27 02:07:58;;;;;;;9.75;2.67;;;;;17.10;100914.00;;;;4930585;29;20052;-72
2021/10/27 02:10:27;;;;;;;13.23;2.38;;;;;17.10;100914.00;;;;4929968;29;20052;-73
2021/10/27 02:12:56;;;;;;;3.67;2.20;;;;;17.00;100908.00;;;;4930512;29;20380;-72
2021/10/27 02:15:26;;;;;;;12.75;1.90;;;;;17.00;100917.00;;;;4930605;29;20054;-73
2021/10/27 02:17:56;;;;;;;15.02;2.10;;;;;17.00;100926.00;;;;4930754;29;20063;-73
2021/10/27 02:20:25;;;;;;;8.63;2.17;;;;;17.00;100902.00;;;;4930444;29;20048;-73
2021/10/27 02:22:55;;;;;;;7.80;2.35;;;;;16.90;100899.00;;;;4929638;29;20051;-72
2021/10/27 02:25:24;;;;;;;5.35;2.15;;;;;16.80;100898.00;;;;4930080;29;20047;-72
2021/10/27 02:27:53;;;;;;;10.52;2.33;;;;;16.70;100909.00;;;;4929691;29;20715;-73
2021/10/27 02:30:24;;;;;;;7.78;2.67;;;;;16.70;100903.00;;;;4930143;29;20047;-73
2021/10/27 02:32:53;;;;;;;5.10;2.05;;;;;16.70;100882.00;;;;4930276;29;20062;-73
2021/10/27 02:35:23;;;;;;;12.27;2.45;;;;;16.60;100908.00;;;;4930180;29;20051;-73
2021/10/27 02:37:52;;;;;;;11.13;2.25;;;;;16.60;100895.00;;;;4930806;29;20055;-73
2021/10/27 02:40:23;;;;;;;9.73;2.47;;;;;16.60;100890.00;;;;4929733;29;20106;-72
2021/10/27 02:42:52;;;;;;;13.20;2.70;;;;;16.60;100899.00;;;;4930323;29;20048;-73
2021/10/27 02:45:22;;;;;;;12.63;2.40;;;;;16.50;100902.00;;;;4928259;29;20051;-73
2021/10/27 02:47:52;;;;;;;12.40;2.17;;;;;16.60;100897.00;;;;4928569;29;20047;-73
2021/10/27 02:50:21;;;;;;;10.80;2.22;;;;;16.60;100890.00;;;;4929128;29;20549;-73
2021/10/27 02:52:51;;;;;;;13.20;2.60;;;;;16.50;100887.00;;;;4929087;29;20044;-73
2021/10/27 02:55:21;;;;;;;8.52;2.42;;;;;16.50;100873.00;;;;4928758;29;20055;-72
2021/10/27 02:57:51;;;;;;;8.25;2.70;;;;;16.50;100875.00;;;;4929180;29;20071;-72
2021/10/27 03:00:20;;;;;;;9.82;2.22;;;;;16.40;100894.00;;;;4928484;29;20048;-72
2021/10/27 03:02:50;;;;;;;7.63;2.08;;;;;16.30;100890.00;;;;4929863;29;20059;-72
2021/10/27 03:05:20;;;;;;;12.52;2.42;;;;;16.30;100898.00;;;;4929869;29;20080;-72
2021/10/27 03:07:51;;;;;;;10.68;2.15;;;;;16.30;100898.00;;;;4929271;29;20071;-72
2021/10/27 03:10:23;;;;;;;10.75;2.53;;;;;16.30;100898.00;;;;4929298;29;20059;-72
2021/10/27 03:12:52;;;;;;;10.05;2.33;;;;;16.30;100892.00;;;;4929882;29;20044;-72
2021/10/27 03:15:22;;;;;;;10.05;2.70;;;;;16.20;100883.00;;;;4929663;29;20460;-72
2021/10/27 03:17:52;;;;;;;6.53;2.80;;;;;16.20;100891.00;;;;4929293;29;20500;-72
2021/10/27 03:20:22;;;;;;;15.90;2.63;;;;;16.30;100889.00;;;;4929801;29;20051;-72
2021/10/27 03:22:51;;;;;;;6.20;2.70;;;;;16.20;100872.00;;;;4929252;29;20051;-72
2021/10/27 03:25:21;;;;;;;10.90;2.85;;;;;16.20;100885.00;;;;4929617;29;20047;-72
2021/10/27 03:27:50;;;;;;;8.60;2.50;;;;;16.20;100885.00;;;;4929716;29;20459;-72
2021/10/27 03:30:20;;;;;;;8.15;2.05;;;;;16.20;100895.00;;;;4929261;29;20040;-72
2021/10/27 03:32:51;;;;;;;9.25;2.60;;;;;16.10;100892.00;;;;4929959;29;20043;-72
2021/10/27 03:35:22;;;;;;;470.35;208.02;;;;;16.00;100865.00;;;;4929532;29;20043;-72
2021/10/27 03:37:51;;;;;;;13.30;2.47;;;;;15.90;100889.00;;;;4929254;29;20523;-72
2021/10/27 03:40:21;;;;;;;14.52;2.72;;;;;15.90;100861.00;;;;4931886;29;20508;-72
2021/10/27 03:42:51;;;;;;;11.35;2.63;;;;;16.00;100866.00;;;;4933128;29;20059;-72
2021/10/27 03:45:20;;;;;;;11.57;2.67;;;;;15.90;100854.00;;;;4933046;29;20676;-72
2021/10/27 03:47:50;;;;;;;7.03;2.47;;;;;15.80;100850.00;;;;4933485;29;20055;-72
2021/10/27 03:50:20;;;;;;;10.48;2.72;;;;;15.80;100858.00;;;;4933269;29;20049;-72
2021/10/27 03:52:49;;;;;;;6.78;2.65;;;;;15.80;100852.00;;;;4932768;29;20424;-72
2021/10/27 03:55:18;;;;;;;8.27;2.70;;;;;15.80;100872.00;;;;4933362;29;20134;-72
2021/10/27 03:57:48;;;;;;;12.93;3.28;;;;;15.70;100878.00;;;;4933083;29;20497;-72
2021/10/27 04:00:18;;;;;;;13.50;2.83;;;;;15.70;100875.00;;;;4932754;29;20052;-72
2021/10/27 04:02:47;;;;;;;8.85;2.55;;;;;15.70;100869.00;;;;4932709;29;20127;-72
2021/10/27 04:05:18;;;;;;;19.77;3.08;;;;;15.70;100863.00;;;;4932207;29;20059;-72
2021/10/27 04:07:48;;;;;;;10.20;3.20;;;;;15.70;100856.00;;;;4932831;29;20067;-72
2021/10/27 04:10:17;;;;;;;12.60;2.72;;;;;15.70;100836.00;;;;4933039;29;20106;-72
2021/10/27 04:12:47;;;;;;;9.80;2.70;;;;;15.60;100835.00;;;;4932707;29;20047;-72
2021/10/27 04:15:17;;;;;;;11.63;3.22;;;;;15.70;100833.00;;;;4932468;29;20127;-72
2021/10/27 04:17:46;;;;;;;7.10;2.70;;;;;15.60;100839.00;;;;4932220;29;20102;-72
2021/10/27 04:20:16;;;;;;;7.30;2.55;;;;;15.60;100851.00;;;;4932526;29;20527;-72
2021/10/27 04:22:46;;;;;;;12.65;2.90;;;;;15.60;100851.00;;;;4932781;29;20051;-72
2021/10/27 04:25:15;;;;;;;6.18;2.78;;;;;15.60;100835.00;;;;4931862;29;20114;-72
2021/10/27 04:27:44;;;;;;;6.50;2.85;;;;;15.50;100817.00;;;;4931738;29;20131;-72
2021/10/27 04:30:14;;;;;;;9.32;2.70;;;;;15.40;100845.00;;;;4933238;29;20058;-72
2021/10/27 04:32:43;;;;;;;4.70;2.97;;;;;15.40;100815.00;;;;4932101;29;20464;-72
2021/10/27 04:35:13;;;;;;;11.02;2.97;;;;;15.40;100837.00;;;;4932742;29;20040;-72
2021/10/27 04:37:44;;;;;;;10.65;2.70;;;;;15.40;100822.00;;;;4931418;29;20107;-72
2021/10/27 04:40:17;;;;;;;10.32;2.90;;;;;15.30;100817.00;;;;4932981;29;20511;-72
2021/10/27 04:42:47;;;;;;;11.07;3.00;;;;;15.30;100822.00;;;;4932897;29;20043;-72
2021/10/27 04:45:20;;;;;;;14.90;2.60;;;;;15.30;100820.00;;;;4932239;29;20047;-72
2021/10/27 04:47:49;;;;;;;6.45;2.60;;;;;15.20;100821.00;;;;4932175;29;20054;-71
2021/10/27 04:50:19;;;;;;;10.60;2.60;;;;;15.20;100820.00;;;;4931599;29;20059;-72
2021/10/27 04:52:48;;;;;;;9.80;2.90;;;;;15.10;100801.00;;;;4931786;29;20456;-72
2021/10/27 04:55:17;;;;;;;7.03;2.88;;;;;15.10;100823.00;;;;4931822;29;20047;-72
2021/10/27 04:57:47;;;;;;;5.63;2.47;;;;;14.90;100809.00;;;;4932158;29;20459;-72
2021/10/27 05:00:17;;;;;;;14.68;2.75;;;;;14.90;100839.00;;;;4931954;29;20054;-72
2021/10/27 05:02:47;;;;;;;14.45;3.08;;;;;14.80;100830.00;;;;4931329;29;20059;-72
2021/10/27 05:05:17;;;;;;;6.22;2.45;;;;;14.80;100824.00;;;;4931791;29;20530;-72
2021/10/27 05:07:47;;;;;;;15.93;3.70;;;;;14.70;100824.00;;;;4932266;29;20039;-72
2021/10/27 05:10:16;;;;;;;12.52;2.90;;;;;14.70;100825.00;;;;4931344;29;20302;-72
2021/10/27 05:12:46;;;;;;;12.68;2.67;;;;;14.70;100826.00;;;;4931676;29;20051;-72
2021/10/27 05:15:15;;;;;;;15.45;2.60;;;;;14.60;100809.00;;;;4931538;29;20789;-72
2021/10/27 05:17:45;;;;;;;5.85;2.50;;;;;14.60;100818.00;;;;4931967;29;20055;-72
2021/10/27 05:20:14;;;;;;;5.18;2.60;;;;;14.60;100802.00;;;;4931043;29;20055;-72
2021/10/27 05:22:43;;;;;;;10.70;2.72;;;;;14.60;100824.00;;;;4931352;29;20107;-72
2021/10/27 05:25:13;;;;;;;6.55;2.63;;;;;14.60;100797.00;;;;4931676;29;20087;-72
2021/10/27 05:27:42;;;;;;;9.57;2.40;;;;;14.60;100819.00;;;;4931784;29;20058;-72
2021/10/27 05:30:12;;;;;;;10.25;2.50;;;;;14.60;100811.00;;;;4931529;29;20036;-72
2021/10/27 05:32:41;;;;;;;7.63;2.80;;;;;14.50;100827.00;;;;4931775;29;20051;-72
2021/10/27 05:35:10;;;;;;;8.85;3.22;;;;;14.50;100800.00;;;;4930706;29;20853;-72
2021/10/27 05:37:40;;;;;;;3.95;2.38;;;;;14.60;100820.00;;;;4929855;29;20583;-72
2021/10/27 05:40:10;;;;;;;9.98;2.92;;;;;14.60;100815.00;;;;4931390;29;20479;-72
2021/10/27 05:42:40;;;;;;;7.40;2.65;;;;;14.60;100817.00;;;;4930030;29;20047;-72
2021/10/27 05:45:10;;;;;;;10.10;2.45;;;;;14.60;100819.00;;;;4931373;29;20054;-72
2021/10/27 05:47:44;;;;;;;5.10;2.50;;;;;14.60;100820.00;;;;4931005;29;20055;-72
2021/10/27 05:55:34;;;;;;;12.23;3.30;;;;;14.50;100803.00;;;;4931345;29;20095;-72
2021/10/27 05:58:06;;;;;;;14.73;3.58;;;;;14.50;100803.00;;;;4931116;29;20500;-72
2021/10/27 06:00:37;;;;;;;6.75;2.55;;;;;14.40;100816.00;;;;4928739;29;20056;-72
2021/10/27 06:03:06;;;;;;;;;;;;;14.40;100807.00;;;;4929771;29;20556;-72
2021/10/27 06:05:36;;;;;;;9.18;2.95;;;;;14.40;100805.00;;;;4930680;29;19974;-72
2021/10/27 06:08:06;;;;;;;7.40;3.05;;;;;14.30;100793.00;;;;4930885;29;20052;-72
2021/10/27 06:10:36;;;;;;;10.07;3.90;;;;;14.30;100820.00;;;;4930312;29;20785;-72
2021/10/27 06:13:07;;;;;;;12.52;3.08;;;;;14.30;100802.00;;;;4930523;29;20099;-72
2021/10/27 06:15:37;;;;;;;8.00;3.07;;;;;14.20;100799.00;;;;4930882;29;20048;-72
2021/10/27 06:18:07;;;;;;;11.90;3.70;;;;;14.20;100819.00;;;;4930784;29;20343;-72
2021/10/27 06:20:37;;;;;;;5.57;2.58;;;;;14.20;100813.00;;;;4930512;29;20416;-72
2021/10/27 06:23:07;;;;;;;7.78;2.90;;;;;14.20;100831.00;;;;4930400;29;20408;-72
2021/10/27 06:25:37;;;;;;;7.03;2.42;;;;;14.20;100833.00;;;;4931169;29;20138;-72
2021/10/27 06:28:12;;;;;;;9.30;2.58;;;;;14.10;100825.00;;;;4930273;29;20047;-72
2021/10/27 06:36:43;;;;;;;7.63;2.55;;;;;13.90;100830.00;;;;4929972;29;20519;-72
2021/10/27 06:47:13;;;;;;;9.23;2.67;;;;;13.70;100848.00;;;;4930773;29;20107;-72
2021/10/27 06:49:43;;;;;;;7.50;3.03;;;;;13.70;100860.00;;;;4930266;29;20526;-72
2021/10/27 06:52:13;;;;;;;5.88;2.25;;;;;13.80;100849.00;;;;4928494;29;20563;-72
2021/10/27 06:54:45;;;;;;;9.82;2.58;;;;;13.70;100849.00;;;;4929679;29;20039;-72
2021/10/27 06:57:18;;;;;;;3.63;2.67;;;;;13.60;100848.00;;;;4930031;29;20055;-72
2021/10/27 06:59:49;;;;;;;5.90;3.00;;;;;13.50;100849.00;;;;4929816;29;20043;-72
2021/10/27 07:05:28;;;;;;;4.45;2.47;;;;;13.50;100855.00;;;;4929211;29;20009;-72
2021/10/27 07:16:21;;;;;;;6.60;2.42;;;;;13.40;100869.00;;;;4930194;29;20054;-71
2021/10/27 07:18:51;;;;;;;4.45;2.47;;;;;13.40;100894.00;;;;4929718;29;20047;-71
2021/10/27 07:21:21;;;;;;;6.38;2.40;;;;;13.30;100898.00;;;;4929357;29;20055;-71
2021/10/27 07:23:50;;;;;;;7.55;2.90;;;;;13.30;100897.00;;;;4929259;29;20477;-72
2021/10/27 07:26:20;;;;;;;7.75;2.80;;;;;13.40;100905.00;;;;4929545;29;20051;-72
2021/10/27 07:28:53;;;;;;;8.57;3.08;;;;;13.40;100894.00;;;;4929538;29;20055;-72
2021/10/27 07:31:24;;;;;;;8.98;2.75;;;;;13.40;100892.00;;;;4929534;29;20044;-73
2021/10/27 07:33:58;;;;;;;6.82;2.83;;;;;13.40;100910.00;;;;4929217;29;20704;-72
2021/10/27 07:42:08;;;;;;;7.90;2.42;;;;;13.50;100913.00;;;;4929144;29;20408;-72
2021/10/27 07:44:38;;;;;;;12.52;2.90;;;;;13.50;100928.00;;;;4929420;29;20099;-72
2021/10/27 07:47:07;;;;;;;9.02;2.78;;;;;13.50;100905.00;;;;4929461;29;20431;-72
2021/10/27 07:49:37;;;;;;;11.38;3.05;;;;;13.50;100930.00;;;;4929133;29;20044;-72
2021/10/27 07:52:07;;;;;;;6.30;2.67;;;;;13.50;100934.00;;;;4929160;29;20744;-72
2021/10/27 07:54:37;;;;;;;5.18;2.55;;;;;13.50;100942.00;;;;4928878;29;20083;-72
2021/10/27 07:57:06;;;;;;;6.28;2.72;;;;;13.40;100948.00;;;;4928936;29;20519;-72
2021/10/27 07:59:35;;;;;;;5.63;2.78;;;;;13.30;100935.00;;;;4929029;29;20110;-72
2021/10/27 08:02:06;;;;;;;6.18;2.58;;;;;13.40;100943.00;;;;4929415;29;20068;-72
2021/10/27 08:04:37;;;;;;;5.88;2.45;;;;;13.30;100945.00;;;;4929228;29;20047;-72
2021/10/27 08:07:08;;;;;;;4.28;2.97;;;;;13.20;100966.00;;;;4929194;29;20507;-72
2021/10/27 08:09:38;;;;;;;10.27;3.10;;;;;13.20;100947.00;;;;4928624;29;20131;-74
2021/10/27 08:12:08;;;;;;;8.73;2.58;;;;;13.20;100954.00;;;;4929219;29;20295;-73
2021/10/27 08:14:38;;;;;;;8.57;2.70;;;;;13.20;100955.00;;;;4929562;29;20083;-73
2021/10/27 08:17:21;;;;;;;9.85;2.92;;;;;13.20;100975.00;;;;4929355;29;20040;-71
2021/10/27 08:19:51;;;;;;;13.10;2.88;;;;;13.20;100959.00;;;;4928878;29;20408;-73
2021/10/27 08:22:21;;;;;;;10.35;2.65;;;;;13.10;100980.00;;;;4928055;29;20504;-73
2021/10/27 08:24:52;;;;;;;9.27;2.45;;;;;13.10;100996.00;;;;4929291;28;20055;-74
2021/10/27 08:27:36;;;;;;;4.75;2.80;;;;;13.00;100984.00;;;;4932530;29;20055;-73
2021/10/27 08:30:07;;;;;;;7.38;2.72;;;;;13.00;100996.00;;;;4932911;29;20047;-73
2021/10/27 08:32:53;;;;;;;10.85;2.50;;;;;13.00;100988.00;;;;4932532;29;20056;-74
2021/10/27 08:35:28;;;;;;;7.85;2.88;;;;;13.10;101010.00;;;;4932997;29;20054;-74
2021/10/27 08:37:58;;;;;;;6.28;2.40;;;;;13.10;100997.00;;;;4932391;29;20055;-74
2021/10/27 08:40:28;;;;;;;9.18;2.80;;;;;13.00;101016.00;;;;4932241;29;20070;-73
2021/10/27 08:42:59;;;;;;;4.60;2.45;;;;;13.10;101009.00;;;;4932477;29;20059;-74
2021/10/27 08:45:29;;;;;;;8.27;3.10;;;;;13.10;101006.00;;;;4932704;29;20490;-73
2021/10/27 08:47:59;;;;;;;9.57;2.53;;;;;13.10;101025.00;;;;4932561;29;20051;-74
2021/10/27 08:50:28;;;;;;;6.95;2.70;;;;;13.10;101018.00;;;;4933043;29;20127;-73
2021/10/27 08:52:58;;;;;;;7.18;3.15;;;;;13.10;101021.00;;;;4931843;29;20054;-73
2021/10/27 08:55:27;;;;;;;6.15;2.60;;;;;13.10;101021.00;;;;4931631;29;20570;-73
2021/10/27 08:57:59;;;;;;;13.32;3.15;;;;;13.20;101031.00;;;;4933055;29;20060;-73
2021/10/27 09:00:34;;;;;;;6.68;2.60;;;;;13.20;101047.00;;;;4932236;29;20150;-73
2021/10/27 09:03:22;;;;;;;6.97;3.08;;;;;13.30;101049.00;;;;4931502;29;20055;-74
2021/10/27 09:06:06;;;;;;;9.45;3.00;;;;;13.30;101044.00;;;;4930049;29;20051;-73
2021/10/27 09:37:29;;;;;;;27.25;4.35;;;;;14.30;101079.00;;;;4930326;29;20047;-73
2021/10/27 09:55:45;;;;;;;10.90;2.75;;;;;17.50;101030.00;;;;4929278;29;20095;-74
2021/10/27 10:06:47;;;;;;;15.20;3.33;;;;;18.80;101002.00;;;;4929836;29;20036;-74
2021/10/27 10:09:18;;;;;;;11.77;3.00;;;;;21.20;100923.00;;;;4930733;29;20043;-73
2021/10/27 10:11:50;;;;;;;5.85;2.40;;;;;21.50;100959.00;;;;4929632;29;20553;-71
2021/10/27 10:14:21;;;;;;;8.88;2.35;;;;;22.40;100931.00;;;;4929552;29;20400;-72
2021/10/27 10:16:53;;;;;;;7.75;2.60;;;;;23.00;100939.00;;;;4930398;29;20048;-73
2021/10/27 10:19:41;;;;;;;15.98;2.45;;;;;24.40;100911.00;;;;4930320;29;20048;-72
2021/10/27 10:22:46;;;;;;;15.38;3.05;;;;;27.40;100874.00;;;;4931179;29;20044;-72
2021/10/27 10:25:22;;;;;;;10.30;2.70;;;;;27.10;100870.00;;;;4890123;29;20445;-72
2021/10/27 10:28:16;;;;;;;7.80;2.20;;;;;28.70;100859.00;;;;4925660;29;20066;-74
2021/10/27 10:30:53;;;;;;;12.68;2.33;;;;;29.00;100859.00;;;;4929777;29;20059;-73
2021/10/27 10:33:38;;;;;;;10.73;2.70;;;;;29.10;100861.00;;;;4930088;29;20042;-74
2021/10/27 10:36:13;;;;;;;7.38;2.40;;;;;28.70;100827.00;;;;4930676;29;20095;-73
2021/10/27 10:59:30;;;;;;;14.68;2.70;;;;;30.30;100810.00;;;;4929846;29;20418;-73
2021/10/27 11:03:22;;;;;;;19.45;2.95;;;;;30.70;100822.00;;;;4929465;29;20423;-74
2021/10/27 11:40:10;;;;;;;13.27;3.45;;;;;28.40;100980.00;;;;4929050;29;20070;-73
2021/10/27 11:45:35;;;;;;;9.18;2.88;;;;;27.50;101094.00;;;;4929934;29;20467;-73
2021/10/27 11:48:29;;;;;;;10.20;2.72;;;;;27.20;101090.00;;;;4929376;29;20040;-72
2021/10/27 11:51:08;;;;;;;18.83;4.43;;;;;26.90;101103.00;;;;4929083;29;20044;-72
2021/10/27 11:53:38;;;;;;;7.05;2.47;;;;;27.00;101111.00;;;;4929490;29;20047;-73
2021/10/27 11:56:19;;;;;;;;;;;;;28.20;101103.00;;;;4930225;29;20059;-73
2021/10/27 11:58:51;;;;;;;15.13;3.55;;;;;27.40;101109.00;;;;4929163;29;20409;-73
2021/10/27 12:01:37;;;;;;;11.38;2.80;;;;;27.60;101099.00;;;;4931062;29;20055;-72
2021/10/27 12:04:14;;;;;;;9.20;2.72;;;;;27.70;101104.00;;;;4932887;29;20044;-72
2021/10/27 12:12:12;;;;;;;13.10;2.60;;;;;27.50;101105.00;;;;4933219;29;20099;-72
2021/10/27 12:18:01;;;;;;;14.13;3.55;;;;;28.70;101105.00;;;;4932418;29;20123;-72
2021/10/27 12:20:33;;;;;;;12.85;2.22;;;;;28.30;101110.00;;;;4932924;29;20051;-72
2021/10/27 12:23:06;;;;;;;12.30;2.80;;;;;28.40;101123.00;;;;4932653;29;20044;-72
2021/10/27 12:25:35;;;;;;;15.68;4.25;;;;;29.10;101123.00;;;;4932163;29;20051;-72
2021/10/27 12:28:19;;;;;;;11.23;2.65;;;;;28.90;101118.00;;;;4932511;29;20119;-72
2021/10/27 12:30:49;;;;;;;11.55;2.38;;;;;28.90;101125.00;;;;4932661;29;20515;-72
2021/10/27 12:33:34;;;;;;;11.90;2.38;;;;;29.10;101120.00;;;;4932381;29;20047;-73
2021/10/27 12:36:37;;;;;;;23.17;5.93;;;;;30.20;101123.00;;;;4932962;29;20048;-72
2021/10/27 12:39:08;;;;;;;7.07;2.33;;;;;29.80;101122.00;;;;4922168;29;20083;-73
2021/10/27 12:41:38;;;;;;;6.07;2.40;;;;;29.60;101119.00;;;;4932395;29;20058;-72
2021/10/27 12:44:25;;;;;;;9.60;2.47;;;;;29.90;101130.00;;;;4932353;29;20127;-72
2021/10/27 12:47:13;;;;;;;25.10;4.03;;;;;30.70;101143.00;;;;4932423;29;20279;-73
2021/10/27 12:49:46;;;;;;;10.55;2.45;;;;;30.20;101133.00;;;;4932330;29;20043;-73
2021/10/27 12:52:31;;;;;;;11.57;2.13;;;;;30.40;101149.00;;;;4932287;29;20044;-73
2021/10/27 12:55:19;;;;;;;11.98;3.47;;;;;31.00;101142.00;;;;4932589;29;20043;-71
2021/10/27 12:58:03;;;;;;;10.40;2.67;;;;;31.00;101140.00;;;;4932150;29;20044;-73
2021/10/27 13:03:42;;;;;;;8.90;2.25;;;;;30.40;101140.00;;;;4931464;29;20056;-74
2021/10/27 13:17:32;;;;;;;7.90;2.63;;;;;31.80;101140.00;;;;4931728;29;20054;-74
2021/10/27 13:20:20;;;;;;;22.13;3.78;;;;;31.40;101135.00;;;;4930941;29;20048;-73
2021/10/27 13:31:48;;;;;;;21.67;3.17;;;;;32.30;101162.00;;;;4891201;29;20152;-73
2021/10/27 13:34:19;;;;;;;16.92;2.67;;;;;32.30;101157.00;;;;4918002;29;20143;-74
2021/10/27 13:36:50;;;;;;;17.17;3.10;;;;;32.70;101157.00;;;;4930126;29;20385;-74
2021/10/27 13:39:21;;;;;;;29.50;3.70;;;;;32.80;101155.00;;;;4931634;29;20054;-73
2021/10/27 13:41:57;;;;;;;19.17;3.00;;;;;32.50;101164.00;;;;4931623;29;20067;-73
2021/10/27 13:44:32;;;;;;;18.85;3.60;;;;;32.70;101151.00;;;;4930958;29;20055;-71
2021/10/27 13:49:52;;;;;;;20.13;2.88;;;;;32.50;101146.00;;;;4931250;29;20075;-74
2021/10/27 13:58:09;;;;;;;21.10;2.97;;;;;33.20;101151.00;;;;4930936;29;20043;-71
2021/10/27 14:06:21;;;;;;;18.17;3.05;;;;;33.40;101142.00;;;;4931143;29;20059;-72
2021/10/27 14:09:06;;;;;;;24.77;3.22;;;;;34.10;101135.00;;;;4930607;29;20107;-71
2021/10/27 14:22:53;;;;;;;18.23;3.15;;;;;34.50;101118.00;;;;4929698;29;20051;-72
2021/10/27 14:39:46;;;;;;;8.55;2.65;;;;;34.80;101096.00;;;;4929748;29;20555;-74
2021/10/27 15:15:36;;;;;;;17.30;2.47;;;;;35.20;101070.00;;;;4930067;29;20047;-74
2021/10/27 15:35:56;;;;;;;11.38;2.00;;;;;35.50;101068.00;;;;4931011;29;20496;-73
2021/10/27 15:43:55;;;;;;;10.55;2.50;;;;;35.00;101070.00;;;;4933034;29;20043;-74
2021/10/27 15:52:09;;;;;;;12.68;2.22;;;;;35.30;101074.00;;;;4932569;29;20071;-73
2021/10/27 15:54:42;;;;;;;14.70;2.80;;;;;35.70;101071.00;;;;4933657;29;20047;-73
2021/10/27 15:57:13;;;;;;;10.13;2.53;;;;;35.40;101065.00;;;;4933266;29;20055;-74
2021/10/27 15:59:44;;;;;;;9.75;2.53;;;;;35.00;101055.00;;;;4932965;29;20044;-73
2021/10/27 16:02:14;;;;;;;18.58;3.28;;;;;35.50;101056.00;;;;4932375;29;20059;-73
2021/10/27 16:04:44;;;;;;;8.30;2.50;;;;;35.70;101053.00;;;;4932784;29;20556;-74
2021/10/27 16:07:16;;;;;;;12.80;2.08;;;;;35.10;101047.00;;;;4933186;29;20291;-73
2021/10/27 16:09:50;;;;;;;10.35;2.00;;;;;35.00;101050.00;;;;4932753;29;20527;-74
2021/10/27 16:12:28;;;;;;;11.05;2.17;;;;;34.90;101048.00;;;;4931738;29;20063;-74
2021/10/27 16:14:58;;;;;;;12.07;2.40;;;;;35.00;101042.00;;;;4931663;29;20469;-73
2021/10/27 16:17:28;;;;;;;10.03;2.57;;;;;35.40;101029.00;;;;4933034;29;20048;-73
2021/10/27 16:19:57;;;;;;;9.60;2.25;;;;;35.70;101043.00;;;;4932510;29;20043;-73
2021/10/27 16:22:27;;;;;;;5.88;1.90;;;;;35.60;101037.00;;;;4931990;29;20063;-72
2021/10/27 16:24:57;;;;;;;8.43;2.00;;;;;35.10;101037.00;;;;4932435;29;20067;-72
2021/10/27 16:27:27;;;;;;;7.68;1.60;;;;;35.00;101032.00;;;;4932702;29;20048;-74
2021/10/27 16:29:56;;;;;;;7.07;2.28;;;;;35.30;101040.00;;;;4932486;29;20059;-73
2021/10/27 16:32:25;;;;;;;8.25;1.63;;;;;35.60;101028.00;;;;4932791;29;20503;-74
2021/10/27 16:34:55;;;;;;;6.05;1.48;;;;;35.60;101043.00;;;;4932836;29;20053;-73
2021/10/27 16:37:26;;;;;;;10.27;2.53;;;;;35.40;101033.00;;;;4932468;29;20051;-74
2021/10/27 16:39:56;;;;;;;4.63;1.52;;;;;34.80;101022.00;;;;4932149;29;20135;-72
2021/10/27 16:42:25;;;;;;;6.93;1.70;;;;;35.00;101044.00;;;;4932461;29;20043;-75
2021/10/27 16:44:55;;;;;;;8.82;1.70;;;;;35.20;101037.00;;;;4932635;29;20051;-73
2021/10/27 16:47:25;;;;;;;7.07;1.50;;;;;35.20;101024.00;;;;4932599;29;20500;-74
2021/10/27 16:49:54;;;;;;;6.97;1.52;;;;;35.10;101017.00;;;;4932680;29;20388;-74
2021/10/27 16:52:24;;;;;;;3.25;1.48;;;;;35.30;101023.00;;;;4931879;29;20051;-74
2021/10/27 16:54:56;;;;;;;7.53;1.60;;;;;35.10;101037.00;;;;4932587;29;20055;-74
2021/10/27 16:57:28;;;;;;;9.93;1.73;;;;;34.90;101020.00;;;;4932090;29;20055;-74
2021/10/27 16:59:57;;;;;;;9.25;1.83;;;;;35.00;101016.00;;;;4930287;29;20523;-73
2021/10/27 17:02:27;;;;;;;4.57;1.73;;;;;35.00;101017.00;;;;4931862;29;20051;-73
2021/10/27 17:04:56;;;;;;;7.32;1.70;;;;;35.00;101025.00;;;;4931334;29;20047;-73
2021/10/27 17:07:27;;;;;;;9.88;1.70;;;;;34.90;101025.00;;;;4932090;29;20048;-72